International TAF

Brunei, China, Hong Kong, Malaysia, Philippines, Taiwan

The availability of aerodrome forecasts from overseas locations is dependent on the regular international exchange of data. Some locations may at times be absent. If this problem persists, please advise webav@bom.gov.au

 back to top

ZSPD 16/12/2018 UTC

TAF ZSPD 160916Z 1612/1712 30005MPS 5000 BR BKN020 TX11/1706Z
TN03/1621Z

WIDD 16/12/2018 UTC

TAF WIDD 161100Z 1612/1712 36005KT 9000 SCT014
TEMPO 1612/1619 6000 -TSRA FEW014CB

WAMM 16/12/2018 UTC

TAF WAMM 161100Z 1612/1718 05002KT 9000 SCT018
PROB30 TEMPO 1615/1618 6000 -RA
BECMG 1623/1701 32007KT SCT021

WBSB 16/12/2018 UTC

TAF WBSB 161100Z 1612/1718 22006KT 9999 FEW014 FEW015CB
TEMPO 1614/1618 6000 -TSRA SCT014 FEW015CB
BECMG 1702/1704 30008KT FEW016 FEW017CB

WBKK 16/12/2018 UTC

TAF WBKK 161100Z 1612/1712 11007KT 9999 FEW013
TEMPO 1612/1616 5000 RA FEW012 FEW015CB SCT040

WBGG 16/12/2018 UTC

TAF WBGG 161100Z 1612/1712 VRB03KT 9999 SCT020
TEMPO 1708/1711 26006KT 3000 TSRA FEW015CB SCT018

VHHH 16/12/2018 UTC

TAF VHHH 161100Z 1612/1718 02010KT 7000 FEW025 TX22/1706Z
TN15/1623Z TEMPO 1703/1709 32010KT TEMPO 1709/1718 VRB05KT

VMMC 16/12/2018 UTC

TAF VMMC 161100Z 1612/1718 35014KT 8000 FEW020

ZGSZ 16/12/2018 UTC

TAF ZGSZ 160902Z 1612/1712 01004MPS 6000 SCT030 TX20/1706Z
TN14/1622Z

RCTP 16/12/2018 UTC

TAF RCTP 161100Z 1612/1718 02012KT 9999 FEW012 SCT020 BKN032
TEMPO 1612/1616 03005KT FEW008 BKN015 BKN040
TEMPO 1706/1712 05020KT
BECMG 1712/1714 06015KT

RCKH 16/12/2018 UTC

TAF RCKH 161100Z 1612/1718 34005KT 7000 FEW015 SCT040 BKN070
BECMG 1618/1620 01010KT 4000 HZ
TEMPO 1622/1701 34005KT 2800 HZ
BECMG 1702/1704 33006KT 7000 NSW

ZGGG 16/12/2018 UTC

TAF ZGGG 160901Z 1612/1712 35005MPS 8000 SCT040 TX21/1707Z
TN12/1622Z

ZBAA 16/12/2018 UTC

TAF ZBAA 160920Z 1612/1712 31004MPS CAVOK TX09/1707Z TNM05/21Z

ZSSS 16/12/2018 UTC

TAF ZSSS 160913Z 1612/1712 29004MPS 5000 HZ BKN015 TX11/1706Z
TN03/1621Z

ZBTJ 16/12/2018 UTC

TAF ZBTJ 160850Z 1612/1712 31004MPS 3000 HZ NSC TX07/1707Z
TNM04/22Z

ZBYN 16/12/2018 UTC

TAF ZBYN 160908Z 1612/1712 30004G10MPS 6000 NSC TX08/1707Z
TNM11/22Z

ZSHC 16/12/2018 UTC

TAF ZSHC 160916Z 1612/1712 30003MPS 3000 BR NSC TX14/1706Z
TN02/1621Z

ZSOF 16/12/2018 UTC

TAF ZSOF 160900Z 161212 27003MPS 3000 HZ NSC TX13/07Z TN00/22Z

ZWWW 16/12/2018 UTC

TAF ZWWW 160911Z 1612/1712 18002MPS 1600 FU NSC TXM10/08Z TNM15/23Z
BECMG 1621/1622 31003MPS -SN BR BKN011 OVC020 BECMG 1704/1705 3500
BR
NSC

ZYTL 16/12/2018 UTC

TAF ZYTL 160909Z 1612/1712 30004MPS 4000 BR SCT033 TX06/1706Z
TN00/1621Z TEMPO 1612/1618 2000 BR

RPLL 16/12/2018 UTC

TAF RPLL 161100Z 1612/1718 09007KT 9999 FEW023 SCT100 TX32/1706Z
TN24/1621Z TEMPO 1612/1618 04008KT SCT022 BKN090
TEMPO 1618/1624 VRB03KT

RPVM 16/12/2018 UTC

TAF RPVM 161100Z 1612/1718 04007KT 9999 FEW020 SCT300
TEMPO 1612/1618 06008KT FEW020 BKN100
TEMPO 1618/1624 04006KT FEW020 BKN250

RPMZ 16/12/2018 UTC

TAF RPMZ 161100Z 1612/1712 06005KT 9999 FEW017 BKN300
TEMPO 1612/1618 VRB03KT FEW017 SCT090 BKN300

Australian International

The availability of aerodrome forecasts from overseas locations is dependent on the regular international exchange of data. Some locations may at times be absent. If this problem persists, please advise webav@bom.gov.au

 back to top

YMML 16/12/2018 UTC

TAF YMML 161103Z 1612/1718
VRB05KT 9999 -SHRA FEW020 SCT030
FM161600 25007KT 9999 SCT008 SCT030
FM161900 24006KT 9999 SCT005 BKN012
BECMG 1621/1623 22010KT 9999 SCT025
FM170800 18010KT 9999 BKN015
TEMPO 1615/1622 8000 HZ BKN005
TEMPO 1709/1718 3000 DZ BKN005
RMK
T 16 15 14 17 Q 1008 1008 1009 1011

YSSY 16/12/2018 UTC

TAF AMD YSSY 161126Z 1612/1718
02008KT 9000 HZ SCT010
FM161800 29005KT 9000 HZ FEW007 BKN010
FM162200 29008KT CAVOK
FM170000 16010KT CAVOK
FM170600 05013KT CAVOK
FM170900 18010KT 9999 FEW007 BKN010
RMK
T 23 22 21 24 Q 1007 1006 1006 1008

YBBN 16/12/2018 UTC

TAF AMD YBBN 161052Z 1612/1718
05012KT 9000 -SHRA SCT010 BKN020 OVC040
FM162300 07014KT 9999 -SHRA SCT020 BKN030
FM170600 08012KT 9999 -SHRA SCT020 BKN035
TEMPO 1612/1624 3000 SHRA BKN010
INTER 1700/1706 3000 SHRA BKN012
PROB30 TEMPO 1614/1702 VRB20G45KT 1000 TSRA BKN010 SCT030CB
RMK
T 23 23 22 24 Q 1011 1009 1009 1010

YSCB 16/12/2018 UTC

TAF YSCB 161106Z 1612/1712
31005KT CAVOK
FM162300 31010KT 9999 FEW050
BECMG 1709/1711 10008KT 9999 FEW020
RMK
T 17 16 14 20 Q 1010 1009 1009 1011

YBCS 16/12/2018 UTC

TAF YBCS 161059Z 1612/1712
VRB05KT 9999 FEW025
FM161800 23010KT 9999 FEW025
FM170000 33010KT 9999 FEW025
FM170300 03012KT 9999 FEW025
RMK FM161900 MOD TURB BLW 5000FT TILL 170300
T 27 25 24 26 Q 1004 1003 1003 1005

YBAS 16/12/2018 UTC

TAF YBAS 161112Z 1612/1712
07010KT CAVOK
FM170900 11010KT CAVOK
RMK
T 29 24 22 23 Q 1009 1009 1008 1009

YBMA 16/12/2018 UTC

TAF YBMA 161047Z 1612/1624
17008KT CAVOK
RMK
T 30 26 24 26 Q 1007 1007 1006 1008

YPAD 16/12/2018 UTC

TAF YPAD 161103Z 1612/1718
19008KT 9999 SCT018 BKN030
FM161800 14005KT 9999 SCT015
FM170000 23010KT CAVOK
FM170800 14010KT CAVOK
RMK
T 18 17 16 18 Q 1011 1011 1010 1012

YPDN 16/12/2018 UTC

TAF YPDN 161111Z 1612/1718
27008KT 9999 SCT020
FM170000 28014KT 9999 FEW035
FM171000 27007KT 9999 SCT020
RMK
T 29 29 29 29 Q 1007 1006 1005 1006

YPTN 16/12/2018 UTC

TAF AMD YPTN 161409Z 1614/1712
32010KT 9999 SCT035
TEMPO 1615/1619 VRB25G45KT 1000 TSRA BKN010 SCT030CB
PROB30 TEMPO 1706/1712 VRB25G40KT 1000 TSRA BKN010 SCT030CB
RMK
T 31 27 26 28 Q 1007 1005 1005 1008

YPPH 16/12/2018 UTC

TAF YPPH 161106Z 1612/1718
17018G28KT CAVOK
FM161500 15012KT 9999 SCT030
FM170200 18014KT CAVOK
BECMG 1710/1712 15012KT CAVOK
RMK
T 23 19 17 16 Q 1006 1009 1009 1011

YPLM 16/12/2018 UTC

TAF AMD YPLM 161418Z 1614/1712
20014KT 9999 SCT020
FM170200 22018KT CAVOK
RMK
T 20 19 18 21 Q 1012 1011 1011 1012

YCAR 16/12/2018 UTC

TAF AMD YCAR 160253Z 1602/1612
21022KT 9999 SCT040
RMK
T 22 23 22 20 Q 1011 1010 1009 1010

YPCC 16/12/2018 UTC

TAF AMD YPCC 161508Z 1615/1712
08014KT 9999 -SHRA BKN010
TEMPO 1615/1712 VRB25G40KT 0500 TSRA BKN005 FEW020CB
RMK
T 26 26 26 26 Q 1013 1012 1011 1012

YPPD 16/12/2018 UTC

TAF YPPD 161110Z 1612/1712
30024G34KT CAVOK
FM161400 26014KT CAVOK
BECMG 1703/1705 29015KT CAVOK
RMK
T 26 26 25 22 Q 1004 1005 1005 1007

YBTL 16/12/2018 UTC

TAF YBTL 161055Z 1612/1712
20010KT 9999 SCT015 SCT030
FM162300 18012KT 9999 SCT025
RMK
T 27 26 25 26 Q 1003 1002 1002 1004

YMHB 16/12/2018 UTC

TAF AMD YMHB 161108Z 1611/1712
33008KT 9999 FEW005 SCT015
FM162200 30008KT 9999 -SHRA SCT015 BKN025
FM170200 20018KT 9999 -SHRA SCT015 BKN025
FM170400 20018KT 9999 -SHRA SCT010 BKN020
INTER 1702/1712 5000 SHRA SCT010 BKN015
RMK
T 17 17 16 17 Q 1004 1003 1002 1003

YPXM 16/12/2018 UTC

TAF YPXM 161109Z 1612/1712
15007KT 9999 SCT015 SCT025
RMK
T 24 24 24 23 Q 1014 1015 1014 1013

New Zealand

The availability of aerodrome forecasts from overseas locations is dependent on the regular international exchange of data. Some locations may at times be absent. If this problem persists, please advise webav@bom.gov.au

 back to top

NZAA 16/12/2018 UTC

TAF NZAA 161102Z 1612/1712 VRB02KT 9999 FEW040
FM170100 25010KT 9999 -SHRA SCT030
FM170900 16005KT 9999 FEW040

NZWN 16/12/2018 UTC

TAF NZWN 161102Z 1612/1712 02005KT 9999 FEW020
BECMG 1618/1620 35015KT
BECMG 1621/1623 35020G35KT

NZCH 16/12/2018 UTC

TAF AMD NZCH 161331Z 1613/1712 06010KT 9999 BKN020
BECMG 1615/1617 VRB02KT BKN014
BECMG 1618/1620 9999 SCT012 BKN020
FM170000 02010KT CAVOK
BECMG 1707/1709 32005KT

YLHI 16/12/2018 UTC

TAF AMD YLHI 161254Z 1613/1712
06014KT 9999 SCT020 SCT025
FM162100 04015G25KT 9999 SCT020
FM170900 04010KT 9999 SCT020
RMK FM161300 MOD TURB BLW 5000FT
T 21 21 21 23 Q 1016 1015 1015 1016

YSNF 16/12/2018 UTC

TAF YSNF 161103Z 1612/1712
10015G25KT 9999 BKN020
FM161800 10018G28KT 9999 SCT020 SCT025
FM170800 09013KT 9999 SCT020 SCT025
RMK FM161400 MOD TURB BLW 5000FT TILL170400
T 20 19 20 22 Q 1020 1018 1018 1019

Indonesia, Malaysia, Myanmar, Singapore, Thailand, Vietnam

The availability of aerodrome forecasts from overseas locations is dependent on the regular international exchange of data. Some locations may at times be absent. If this problem persists, please advise webav@bom.gov.au

 back to top

WADA

TAF not available.

WAAA 16/12/2018 UTC

TAF WAAA 161100Z 1612/1718 10005KT 8000 SCT018
TEMPO 1615/1619 5000 -TSRA FEW017CB
BECMG 1621/1623 9999
BECMG 1701/1703 28010KT

WIII 16/12/2018 UTC

TAF WIII 161100Z 1612/1718 25013KT 6000 SCT020 TEMPO 1612/1616
FEW018CB

WIHH 16/12/2018 UTC

TAF WIHH 161100Z 1612/1712 26008KT 6000 SCT020 BECMG 1618/1620 18005KT FEW022

WIMM 16/12/2018 UTC

TAF WIMM 161100Z 1612/1712 VRB04KT 5000 HZ BKN018
BECMG 1702/1704 33009KT 9000 SCT020

WIPP 16/12/2018 UTC

TAF WIPP 161100Z 1612/1712 28005KT 9999 SCT010 PROB30
TEMPO 1612/1615 3000 RA BKN010 FEW012CB
TEMPO 1621/1624 3000 BR

WIKD

TAF not available.

WARR 16/12/2018 UTC

TAF WARR 161100Z 1612/1712 15010KT 8000 FEW020
TEMPO 1612/1616 4000 TSRA FEW018CB SCT020
BECMG 1616/1618 28006KT 4000 BR
BECMG 1701/1703 9999 NSW
PROB30 TEMPO 1708/1712 16010KT 3000 TSRA SCT018CB

WADD 16/12/2018 UTC

TAF WADD 161100Z 1612/1712 24010KT 9999 SCT016

WRRA

TAF not available.

WALL 16/12/2018 UTC

TAF WALL 161100Z 1612/1718 34005KT 6000 -TSRA FEW017CB SCT018 BECMG 1615/1618 8000 NSW
TEMPO 1618/1621 5000 -RA BECMG 1622/1701 27005KT 9999 SCT020

WSSS 16/12/2018 UTC

TAF WSSS 161100Z 1612/1718 VRB05KT 9999 FEW015CB SCT020
TEMPO 1706/1710 3000 TSRA FEW012CB BKN015

WSAP 16/12/2018 UTC

TAF WSAP 161100Z 1612/1718 VRB05KT 9999 FEW015CB SCT020
TEMPO 1706/1710 3000 TSRA FEW012CB BKN015

WMKK 16/12/2018 UTC

TAF WMKK 161100Z 1612/1718 27007KT 9999 FEW017CB
BECMG 1614/1615 04005KT 9000 FEW017CB
BECMG 1700/1702 34005KT 9999
TEMPO 1708/1712 25007KT 3000 TSRA FEW016CB SCT018

WMSA 16/12/2018 UTC

TAF WMSA 161100Z 1612/1712 VRB02KT 9000 FEW017CB
PROB30 TEMPO 1612/1615 5000 -TSRA FEW016CB SCT018
BECMG 1616/1618 VRB02KT 7000 FEW010 FEW017CB
BECMG 1700/1702 31005KT 9999 FEW018
TEMPO 1707/1712 30010KT 3000 TSRA FEW010 FEW016CB SCT018

WMKP 16/12/2018 UTC

TAF WMKP 161100Z 1612/1712 02005KT 9000 FEW020 SCT140 BKN270
BECMG 1706/1708 22010KT
TEMPO 1707/1712 5000 TSRA FEW010 FEW017CB

WMKJ 16/12/2018 UTC

TAF WMKJ 161100Z 1612/1712 VRB02KT 9999 FEW017CB
BECMG 1620/1622 2000 BR FEW006
BECMG 1700/1702 VRB02KT 9999 NSW FEW018
TEMPO 1707/1712 4000 TSRA FEW010 FEW017CB SCT020

WMKD 16/12/2018 UTC

TAF WMKD 161100Z 1612/1712 01005KT 9999 FEW024 PROB30 TEMPO 1612/1615
7000 -RA SCT023

WMKB 16/12/2018 UTC

TAF AMD WMKB 161510Z 1615/1712 09005KT 8000 FEW025
TEMPO 1615/1619 6000 -RA FEW012 SCT140
BECMG 1704/1706 30010KT FEW020
PROB30 TEMPO 1707/1712 5000 TSRA FEW017CB

VTBD 16/12/2018 UTC

TAF VTBD 161100Z 1612/1718 35005KT 9999 FEW030
BECMG 1621/1623 05005KT
BECMG 1706/1708 35005KT

VTBS 16/12/2018 UTC

TAF VTBS 161100Z 1612/1718 36008KT 9999 FEW025
BECMG 1621/1623 06010KT

VTBU 16/12/2018 UTC

TAF VTBU 161100Z 1612/1712 36004KT 9000 FEW020
BECMG 1616/1618 7000

VTCC 16/12/2018 UTC

TAF VTCC 161100Z 1612/1718 02005KT 9999 FEW030

VTSP 16/12/2018 UTC

TAF VTSP 161100Z 1612/1718 08005KT 8000 FEW020 BKN100
TEMPO 1616/1622 08010G25KT 5000 TSRA FEW018CB SCT020 BKN100
BECMG 1702/1704 08010KT 9999
TEMPO 1708/1712 08010G25KT 5000 TSRA FEW018CB SCT020 BKN100
BECMG 1712/1714 00000KT 8000

VTSS 16/12/2018 UTC

TAF VTSS 161100Z 1612/1712 06005KT 9000 -RA SCT015 BKN100
TEMPO 1612/1618 5000 RA
TEMPO 1618/1624 5000 RA

VVTS 16/12/2018 UTC

TAF VVTS 161100Z 1612/1718 04008KT 9999 SCT017 SCT040
BECMG 1615/1616 VRB02KT
BECMG 1701/1702 05010KT
TEMPO 1708/1711 TS BKN015 FEW017CB

VDPP 16/12/2018 UTC

TAF VDPP 161100Z 1612/1706 04007KT 9999 SCT017 SCT040

VVNB 16/12/2018 UTC

TAF VVNB 161100Z 1612/1712 36007KT 7000 NSC

VYYY 16/12/2018 UTC

TAF VYYY 161100Z 1612/1712 05006KT 7000 FEW120
TEMPO 1612/1618 02005KT 6000 FEW020 SCT110

South America

The availability of aerodrome forecasts from overseas locations is dependent on the regular international exchange of data. Some locations may at times be absent. If this problem persists, please advise webav@bom.gov.au

 back to top

SAEZ 16/12/2018 UTC

TAF SAEZ 161100Z 1612/1712 01010KT CAVOK TX32/1618Z TN22/1712Z
BECMG 1613/1615 34010KT
BECMG 1617/1619 SCT030
BECMG 1623/1701 VRB03KT

SAVC 16/12/2018 UTC

TAF SAVC 161100Z 1612/1712 24025KT 9999 BKN030 SCT060 TX18/1618Z
TN10/1710Z PROB30 TEMPO 1613/1616 SHRA BECMG 1617/1619 09010KT BECMG
1700/1702 VRB07KT SCT030 BECMG 1703/1705 27012KT

SCIE 16/12/2018 UTC

TAF SCIE 161020Z 1612/1712 16004KT CAVOK TX20/1618Z TN11/1711Z TEMPO
1612/1618 22008KT FEW008 SCT012 BECMG 1618/1620 24015KT BECMG 1701/
1703 18005KT

SACO 16/12/2018 UTC

TAF SACO 161100Z 1612/1712 05010KT 9999 SCT030 TX31/1618Z
TN17/1710Z
BECMG 1620/1622 36015KT 9999 SCT025 SCT035 FEW040CB

SCIP 16/12/2018 UTC

TAF SCIP 161030Z 1612/1712 09008KT 9999 SCT023 SCT045
TX26/1620Z TN20/1712Z
TEMPO 1612/1614 12015KT 8000 -SHRA SCT016 BKN030
BECMG 1616/1618 09013KT SCT023
TEMPO 1619/1700 12018KT 7000 -SHRA BKN020
BECMG 1702/1704 09008KT

SAZM 16/12/2018 UTC

TAF SAZM 161100Z 1612/1712 32015G25KT CAVOK TX31/1618Z TN14/1710Z
BECMG 1700/1703 18010KT 9999 SCT030 BKN060
TEMPO 1704/1707 18015G25KT 5000 TSRA SCT030 FEW040CB OVC050

SAME 16/12/2018 UTC

TAF SAME 161100Z 1612/1712 05005KT CAVOK TX36/1620Z TN16/1710Z
BECMG 1613/1615 05010KT 9999 SCT030TCU FEW040CB
BECMG 1700/1702 18010KT 8000 TSRA SCT030TCU FEW040CB

SUMU 16/12/2018 UTC

TAF SUMU 161117Z 1612/1712 03008KT CAVOK TX28/1618Z TN19/1709Z
BECMG 1615/1619 32012KT PROB40 TEMPO 1702/1712 36010G25KT 7000 TSRA
BKN015 FEW040CB OVC060

SAZN 16/12/2018 UTC

TAF SAZN 161100Z 1612/1712 25010KT CAVOK
TX30/1619Z TN14/1709Z
BECMG 1616/1619 25020G30KT 9999 SCT040
BECMG 1701/1703 24015KT
BECMG 1704/1706 12015KT BKN030 OVC100

SCTE 16/12/2018 UTC

TAF COR SCTE 161039Z 1612/1712 26010KT 9000 -DZRA SCT010 OVC016
TX16/1619Z TN07/1706Z
BECMG 1613/1615 9999 NSW SCT013 BKN025
TEMPO 1617/1620 VRB03KT 8000 -SHRA
BECMG 1618/1620 17013KT BKN035
BECMG 1621/1623 FEW040
BECMG 1702/1704 9999 SCT025
BECMG 1705/1707 OVC020
TEMPO 1706/1712 OVC015

SCCI 16/12/2018 UTC

TAF SCCI 161056Z 1612/1712 24020KT 9000 FEW040 TX10/1618Z
TN07/1711Z
TEMPO 1612/1622 7000 -SHRA SCT014
BECMG 1612/1614 24025G35KT
BECMG 1614/1616 24030G45KT
BECMG 1700/1702 27025G40KT PROB40
TEMPO 1703/1711 27030G50KT

SAWG 16/12/2018 UTC

TAF SAWG 161100Z 1612/1712 26023KT 9999 SCT030 SCT080 TX15/1619Z
TN06/1710Z
BECMG 1700/1702 26025G35KT BKN020

SAAR 16/12/2018 UTC

TAF SAAR 161100Z 1612/1712 02005KT CAVOK TX29/1619Z TN21/1709Z
BECMG 1615/1616 07005KT 9999 SCT030 FEW040TCU BKN100
TEMPO 1616/1620 7000 SHRA SCT025 FEW040CB BKN050
BECMG 1620/1623 02015KT
BECMG 1701/1703 5000 TSRA BKN015 FEW040CB OVC050

SAZS 16/12/2018 UTC

TAF SAZS 161100Z 1612/1712 29020G35KT 9999 BKN025 BKN050
TX16/1619Z
TN03/1709Z
BECMG 1621/1623 25015KT 9999 SCT030 BKN100
BECMG 1702/1704 14005KT CAVOK
BECMG 1706/1708 14020KT

SCEL 16/12/2018 UTC

TAF SCEL 161019Z 1612/1712 15004KT CAVOK TX31/1619Z TN13/1711Z BECMG
1614/1616 18008KT BECMG 1618/1620 21015KT BECMG 1701/1703 16004KT
TEMPO 1708/1712 7000 NSC

SAWH 16/12/2018 UTC

TAF SAWH 161100Z 1612/1712 26020G30KT 9999 BKN020 BKN030
TX08/1618Z
TN05/1710Z
TEMPO 1612/1620 5000 SHRA OVC012

Guam, Japan, Korea

The availability of aerodrome forecasts from overseas locations is dependent on the regular international exchange of data. Some locations may at times be absent. If this problem persists, please advise webav@bom.gov.au

 back to top

PGUA 16/12/2018 UTC

TAF AMD PGUA 161500Z 1610/1716 06020G25KT 9999 BKN015 QNH2970INS
TEMPO 1615/1619 06025G35KT 6000 TSRA BKN010CB
BECMG 1620/1622 08015G20KT 9999 VCSH BKN012 QNH2972INS
TEMPO 1702/1706 08018G25KT 8000 -SHRA BKN009 TX29/1704Z
TN24/1621Z

PGUM 16/12/2018 UTC

TAF AMD PGUM 161310Z 1613/1718 05015G29KT P6SM VCSH SCT017 BKN040 OVC080
TEMPO 1613/1616 2SM SHRA BKN015 OVC030
FM161600 05014G22KT P6SM VCSH SCT016 BKN040 OVC080
TEMPO 1616/1620 5SM SHRA BKN015 BKN030 OVC080

PGSN 16/12/2018 UTC

TAF PGSN 161140Z 1612/1712 05016G28KT P6SM VCSH SCT014 SCT040 BKN140
TEMPO 1614/1618 -SHRA SCT012 BKN030

PTRO 16/12/2018 UTC

TAF PTRO 161140Z 1612/1712 06010KT P6SM FEW016 SCT050 SCT140
FM162300 05012G20KT P6SM VCSH FEW018 SCT040 SCT120

RJOO

16/12/2018 UTC

TAF RJOO 161107Z 1612/1718 07005KT 7000 -SHRA FEW008 SCT015 BKN025
TEMPO 1612/1615 3000 SHRA BR FEW002 BKN008 BKN020 TEMPO
1615/1618 4000 -SHRA BR FEW002 BKN008 BKN020 BECMG
1616/1618 32005KT

RJOB 16/12/2018 UTC

TAF RJOB 161110Z 1612/1718 02004KT 4000 -RA BR BCFG FEW000 BKN008
BKN020 TEMPO 1612/1615 1500 RA BR BCFG FEW000 SCT003 BKN005
BECMG 1618/1620 31005KT 9999 NSW FEW015 BKN035

RJGG 16/12/2018 UTC

TAF RJGG 161105Z 1612/1718 36010KT 8000 FEW005 BKN012 BECMG
1614/1616 4000 -RA BR TEMPO 1615/1621 3000 RA BR FEW003
BKN005 BECMG 1621/1623 9999 NSW BECMG 1700/1703 32022KT

RJCC 16/12/2018 UTC

TAF RJCC 161105Z 1612/1718 16010KT 9999 -SHRASN FEW008 BKN025 TEMPO
1612/1615 2000 SHRASN BR BKN005 BKN025 FEW025CB TEMPO
1615/1617 1500 -SHSNRA FEW003 BKN005 BECMG 1620/1622
35006KT TEMPO 1712/1718 1500 -SHSN FEW004 BKN006

RJSS 16/12/2018 UTC

TAF RJSS 161105Z 1612/1718 24006KT 9999 FEW030 SCT050 BECMG
1703/1706 04006KT BECMG 1709/1712 28008KT

RJFK 16/12/2018 UTC

TAF RJFK 161110Z 1612/1718 35011KT 8000 -SHRA FEW006 SCT020 BKN030
TEMPO 1612/1615 1500 SHRA BR FEW002 BKN005 BKN015

RJAA 16/12/2018 UTC

TAF RJAA 161105Z 1612/1718 34005KT 8000 FEW015 BKN040 TEMPO
1621/1703 4000 -RA BR FEW002 BKN004 TEMPO 1703/1706 FEW004
BKN007

RJBB 16/12/2018 UTC

TAF RJBB 161106Z 1612/1718 05008KT 6000 -SHRA FEW008 SCT015 BKN025
TEMPO 1612/1618 3000 SHRA BR FEW002 BKN008 BKN020 TEMPO
1618/1621 4000 -SHRA BR FEW002 BKN008 BKN020 BECMG
1621/1623 31015KT

RJTT 16/12/2018 UTC

TAF RJTT 161106Z 1612/1718 33008KT 9999 FEW020 BKN030 TEMPO
1621/1700 4000 -RA BR FEW005 BKN008 TEMPO 1700/1703 3000 RA
BR FEW005 BKN008

RJFF 16/12/2018 UTC

TAF RJFF 161105Z 1612/1718 15004KT 9999 FEW010 SCT020 BKN040 TEMPO
1612/1614 4000 SHRA BR FEW005 BKN008 BKN010 BECMG 1616/1618
31010KT

RJFT 16/12/2018 UTC

TAF RJFT 161105Z 1612/1718 35005KT 6000 -SHRA FEW005 SCT008 BKN010
TEMPO 1612/1614 0300 SHRA FG VV002 TEMPO 1614/1618 3500
-SHRA BR FEW003 SCT005 BKN008 TEMPO 1618/1700 1500 -SHRA BR
FEW001 BKN005 BKN015 BECMG 1700/1703 31006KT BECMG
1709/1712 06003KT

RJFU 16/12/2018 UTC

TAF RJFU 161108Z 1612/1718 36010KT 8000 -SHRA FEW010 SCT020 BKN030

ROAH 16/12/2018 UTC

TAF ROAH 161106Z 1612/1718 24012KT 9999 FEW020 BKN035 BECMG
1612/1614 34018KT TEMPO 1612/1614 4000 SHRA

RKSS 16/12/2018 UTC

TAF AMD RKSS 161441Z 1615/1718 32006KT 6000 FEW010 SCT030
TNM03/1621Z TX04/1706Z
TEMPO 1615/1616 3500 -RA BKN030
BECMG 1617/1618 3500 BR
TEMPO 1620/1622 1800
BECMG 1700/1701 6000 NSW
BECMG 1711/1712 14005KT

RKSI 16/12/2018 UTC

TAF RKSI 161100Z 1612/1718 26010KT 6000 SCT030
TNM01/1621Z TX05/1706Z
BECMG 1617/1618 32010KT
BECMG 1620/1621 05008KT
BECMG 1702/1703 34010KT

RKSM 16/12/2018 UTC

TAF RKSM 161100Z 1612/1718 24006KT 9999 SCT030 BECMG 1617/1618
27006KT 4800 BR SCT040 VIS 9999 NSW AFT 1700 TNM03/1621Z
TX04/1706Z

RKPK 16/12/2018 UTC

TAF AMD RKPK 161205Z 1612/1718 33006KT 0100 FG BKN001
TNM05/1622Z TX08/1706Z
FM162100 33006KT 0800 FG BKN005
BECMG 1622/1623 1600 BR BKN010
BECMG 1623/1624 4800 SCT030
BECMG 1700/1701 9999 NSW

RKPC 16/12/2018 UTC

TAF RKPC 161100Z 1612/1718 31009KT 9999 BKN025
TN08/1619Z TX10/1704Z
TEMPO 1615/1620 32015G25KT
BECMG 1621/1622 32018G30KT

Indonesia, Pakistan, Singapore, India, Sri Lanka, United Arab Emirates

The availability of aerodrome forecasts from overseas locations is dependent on the regular international exchange of data. Some locations may at times be absent. If this problem persists, please advise webav@bom.gov.au

 back to top

WIII 16/12/2018 UTC

TAF WIII 161100Z 1612/1718 25013KT 6000 SCT020 TEMPO 1612/1616
FEW018CB

WSSS 16/12/2018 UTC

TAF WSSS 161100Z 1612/1718 VRB05KT 9999 FEW015CB SCT020
TEMPO 1706/1710 3000 TSRA FEW012CB BKN015

VCBI 16/12/2018 UTC

TAF VCBI 161100Z 1612/1718 02008KT 8000 NSC TX30/1708Z TN23/1623Z
TEMPO 1623/1703 5000 BR
BECMG 1704/1706 9000

VECC 16/12/2018 UTC

TAF VECC 161100Z 1612/1718 33005KT 3000 -RA HZ SCT020 BKN100
BECMG 1614/1616 00000KT 2200 -RA BR
BECMG 1702/1704 36005KT 3200 -RA HZ SCT020 BKN090
BECMG 1713/1715 00000KT 2400 -RA BR

VOMM 16/12/2018 UTC

TAF VOMM 161100Z 1612/1718 01015G25KT 5000 HZ SCT018 BKN100
TEMPO 1612/1618 4000 -TSRA/RA SCT015 FEW025CB BKN080
BECMG 1621/1622 01010KT
TEMPO 1621/1703 3000 TSRA/RA SCT012 FEW025CB OVC080
BECMG 1705/1706 01020G30KT 4000 -DZ/HZ

VOTV 16/12/2018 UTC

TAF VOTV 161100Z 1612/1718 32005KT 4000 HZ FEW015 FEW025CB SCT090
BECMG 1617/1618 VRB03KT 3000 HZ TEMPO 1623/1702 2000 BR
FEW015
SCT090 BECMG 1705/1706 25005KT 5000 HZ SCT015 BECMG 1716/1717
VRB03KT 3000 HZ SCT015

VABB 16/12/2018 UTC

TAF VABB 161100Z 1612/1718 10010KT 4000 FU NSC
BECMG 1614/1616 04007KT 3000 FU
BECMG 1702/1704 11008KT 2000 HZ FU
BECMG 1706/1108 3000 FU
BECMG 1710/1712 4000 FU
BECMG 1714/1716 04007KT 3000 FU

VAAH 16/12/2018 UTC

TAF VAAH 161100Z 1612/1718 05006KT 4000 FU HZ SCT080
BECMG 1701/1703 06009KT 3000 HZ SCT080
BECMG 1705/1707 06008KT 6000 SCT080
BECMG 1712/1714 05006KT 4000 FU

VILK 16/12/2018 UTC

TAF COR VILK 161100Z 1612/1718 32004KT 2500 HZ FEW100
BECMG 1620/1622 00000KT 1500 BR
BECMG 1703/1705 32005KT 2000 HZ
BECMG 1708/1710 3000 HZ
BECMG 1714/1716 VRB02KT 2500 HZ BR

VANP 16/12/2018 UTC

TAF VANP 161100Z 1612/1718 09005KT 3000 HZ SCT020 BKN100
BECMG 1700/1702 07005KT 2000 -RA BR SCT018 BKN090
BECMG 1704/1706 04010KT 1500 RA BR
BECMG 1712/1714 05010KT 2000 -RA BR FEW012 SCT018 OVC090

VRMM 16/12/2018 UTC

TAF VRMM 161100Z 1612/1718 34004KT 9999 FEW018

VOHS 16/12/2018 UTC

TAF VOHS 161100Z 1612/1718 06008KT 5000 HZ SCT020 SCT100 TEMPO
1700/1703 05005KT 3000 HZ SCT010 BECMG 1704/1706 04008KT 5000
HZ
SCT015 BKN100 TEMPO 1709/1718 09010KT 3000 SHRA RA BKN015
OVC080

OPKC 16/12/2018 UTC

TAF OPKC 161600Z 1618/1724 05008G18KT 5000 FU NSC TEMPO 1701/1705
05005G15KT 3000 FU NSC
FM170600 03010G20KT 6000 NSC BECMG 1718/1720 05010KT 5000 FU NSC

OBBI 16/12/2018 UTC

TAF OBBI 161100Z 1612/1718 34010KT 9999 FEW025 BECMG 1700/1702
VRB05KT PROB30 TEMPO 1701/1705 5000 HZ SCT010

OMAA 16/12/2018 UTC

TAF OMAA 161100Z 1612/1718 35011KT 8000 NSC
BECMG 1618/1620 07005KT
BECMG 1711/1713 36010KT

OMDB 16/12/2018 UTC

TAF OMDB 161053Z 1612/1718 36012KT 9999 FEW040
BECMG 1615/1617 09006KT
BECMG 1709/1711 36012KT
BECMG 1715/1717 08006KT

OOMS 16/12/2018 UTC

TAF OOMS 161100Z 1612/1718 03012KT 8000 FEW020 BECMG 1618/1620
21005KT BECMG 1706/1708 06012KT

OMSJ 16/12/2018 UTC

TAF OMSJ 161053Z 1612/1718 01012KT 9999 FEW040
BECMG 1614/1616 10005KT
BECMG 1710/1712 01012KT
BECMG 1715/1717 09005KT

Malawi, Mauritius, South Africa, Zambia, Zimbabwe

The availability of aerodrome forecasts from overseas locations is dependent on the regular international exchange of data. Some locations may at times be absent. If this problem persists, please advise webav@bom.gov.au

 back to top

FIMP 16/12/2018 UTC

TAF FIMP 161115Z 1612/1718 11013G25KT 9999 SCT017

FMEE 16/12/2018 UTC

TAF FMEE 161100Z 1612/1718 14016KT 9999 FEW030 SCT045 TEMPO 1612/1614
10020G30KT BECMG 1616/1618 14005KT TEMPO 1702/1704 4500 SHRA
SCT015TCU BECMG 1704/1706 13016KT TEMPO 1707/1714 12020G30KT

FLKK

TAF not available.

FWKI 16/12/2018 UTC

TAF FWKI 161400Z 1618/1724 06011KT 9999 FEW025CB BKN080 BECMG
1703/1705 FEW020 BECMG 1707/1709 FEW023CB BKN026 PROB30 TEMPO
1709/1714 7000 -TSRA FEW022CB BKN025 BECMG 1714/1716 FEW020CB
BKN080

FAOR 16/12/2018 UTC

TAF FAOR 161000Z 1612/1718 30010KT CAVOK
BECMG 1614/1616 19008KT FEW040TCU
PROB40 TEMPO 1617/1624 5000 TSRA FEW035CB
BECMG 1617/1619 06013KT
BECMG 1704/1706 36006KT
BECMG 1708/1710 26008KT
PROB30 TEMPO 1716/1718 5000 TSRA FEW035CB
TX30/1613Z TN16/1703Z

FVHA

TAF not available.

FAWK 16/12/2018 UTC

TAF FAWK 160900Z 1610/1618 NIL

FABL 16/12/2018 UTC

TAF FABL 161000Z 1612/1712 29015KT 9999 SCT070TCU
PROB30 TEMPO 1617/1622 31020G40KT TS SCT070CB
BECMG 1622/1624 CAVOK
TX36/1613Z TN18/1703Z

FALE 16/12/2018 UTC

TAF FALE 161000Z 1612/1718 05015KT 9999 SCT025
PROB30 TEMPO 1616/1620 5000 TSRA FEW040CB
BECMG 1617/1619 03005KT FM170900 04012KT CAVOK
TX29/1712Z TN22/1703Z

YPCC 16/12/2018 UTC

TAF AMD YPCC 161508Z 1615/1712
08014KT 9999 -SHRA BKN010
TEMPO 1615/1712 VRB25G40KT 0500 TSRA BKN005 FEW020CB
RMK
T 26 26 26 26 Q 1013 1012 1011 1012

United States (includes Hawaii) and Mexican emergency/alternates

The availability of aerodrome forecasts from overseas locations is dependent on the regular international exchange of data. Some locations may at times be absent. If this problem persists, please advise webav@bom.gov.au

 back to top

PHNL 16/12/2018 UTC

TAF PHNL 161431Z 1615/1718 05011KT P6SM FEW025 SCT040
FM162100 05013G21KT P6SM FEW025 SCT040
FM170600 05009KT P6SM FEW025 SCT040

PHLI 16/12/2018 UTC

TAF PHLI 161121Z 1612/1712 05014KT P6SM BKN035
FM162100 05011KT P6SM FEW035

PHOG 16/12/2018 UTC

TAF PHOG 161121Z 1612/1712 06012KT P6SM FEW035
FM162100 06016G24KT P6SM FEW035
FM170600 06010KT P6SM FEW035
AMD LTD TO VIS AND WIND TIL 161600

PHTO 16/12/2018 UTC

TAF PHTO 161121Z 1612/1712 24006KT P6SM FEW030 SCT050
TEMPO 1611/1614 -SHRA BKN025 OVC040
FM162100 08012KT P6SM FEW030 SCT050
FM170600 24004KT P6SM FEW025 SCT040

PKMJ 16/12/2018 UTC

TAF PKMJ 161140Z 1612/1712 09010KT P6SM VCSH FEW015 SCT050 BKN140

KLAX 16/12/2018 UTC

TAF KLAX 161455Z 1615/1718 06004KT P6SM OVC006
FM161615 VRB03KT P6SM SCT200
FM162000 27010KT P6SM SCT200
FM170400 27005KT P6SM BKN150
FM170800 VRB04KT P6SM BKN050 OVC150
FM171700 09005KT P6SM BKN040 OVC100

KONT 16/12/2018 UTC

TAF KONT 161128Z 1612/1718 VRB05KT P6SM FEW200

KPMD 16/12/2018 UTC

TAF KPMD 161138Z 1612/1712 VRB05KT P6SM SCT200
FM170200 24007KT P6SM BKN150

KSAN 16/12/2018 UTC

TAF KSAN 161128Z 1612/1718 VRB03KT P6SM FEW250
FM162100 30009KT P6SM FEW200
FM170130 20004KT P6SM SCT015
FM171000 VRB03KT P6SM BKN010
FM171600 VRB04KT P6SM BKN015

KLAS 16/12/2018 UTC

TAF KLAS 161441Z 1615/1718 VRB05KT P6SM FEW250
FM161900 09005KT P6SM SCT250
FM170300 22006KT P6SM SCT250
FM171400 VRB05KT P6SM BKN150

KOAK 16/12/2018 UTC

TAF KOAK 161120Z 1612/1718 10009KT P6SM FEW015 BKN050 OVC100
FM161500 13013KT P6SM -SHRA SCT030 OVC040
FM162100 16017G23KT 6SM -RA BR SCT025 OVC035
FM170000 16011G19KT 5SM RA BR BKN010 OVC030
FM170400 20010KT 6SM -RA BR BKN020 BKN040
FM171000 28006KT P6SM -SHRA SCT030 BKN035 BKN050
FM171500 29007KT P6SM SCT040

KSFO 16/12/2018 UTC

TAF KSFO 161500Z 1615/1718 15012KT P6SM FEW020 BKN025
FM162000 17018G28KT 5SM -RA BR OVC025
FM170000 18012G22KT 4SM RA BR OVC025
FM170400 21010G18KT 6SM -RA BR BKN030
FM171000 25007KT P6SM -SHRA SCT030 BKN040
FM171500 26007KT P6SM SCT040

KSMF 16/12/2018 UTC

TAF KSMF 161130Z 1612/1712 16008KT P6SM SCT070 BKN150
FM161800 16017G26KT P6SM BKN060
FM170000 15015G25KT 4SM RA BR OVC025
FM170300 18008KT P6SM SCT040 BKN100

KSCK 16/12/2018 UTC

TAF KSCK 161130Z 1612/1712 12007KT P6SM SCT080 BKN150
FM161800 14015G22KT P6SM OVC120
FM170200 15012KT 4SM RA BR BKN030 OVC050
FM170500 16007KT P6SM SCT050 BKN120

KFAT 16/12/2018 UTC

TAF KFAT 161120Z 1612/1712 VRB03KT 6SM HZ SCT250
FM161900 13007KT P6SM SCT150 BKN250
FM170400 12005KT 6SM BR OVC050 PROB30 1704/1705 4SM -RA OVC100
FM170900 11008KT 4SM -RA BR OVC050

KJFK 16/12/2018 UTC

TAF KJFK 161416Z 1614/1718 04019G26KT 4SM -RA BR SCT007 OVC012
WS020/07045KT
FM161700 05019G27KT 1 1/2SM -RA BR BKN007 OVC010
FM170000 01015G24KT 4SM -RA BR BKN007 OVC010
FM170900 34014G20KT P6SM BKN020 OVC035
FM171400 30012G20KT P6SM BKN050

KPHL 16/12/2018 UTC

TAF KPHL 161440Z 1615/1718 05017G24KT 6SM -RADZ BR OVC010
FM161600 05015G22KT 6SM -RADZ BR OVC008
TEMPO 1618/1622 4SM RADZ BR OVC008
FM170000 36013KT 5SM -RADZ BR OVC010
FM170400 33010KT P6SM BKN015
FM170800 30008KT P6SM BKN050

KPIT 16/12/2018 UTC

TAF AMD KPIT 161525Z 1615/1718 05010KT 6SM -RA OVC008
FM161600 06008KT P6SM -SHRA OVC010
FM162100 34005KT P6SM OVC015
FM170500 28005KT P6SM BKN025
FM171200 27008KT P6SM BKN015

KDEN 16/12/2018 UTC

TAF KDEN 161443Z 1615/1718 20009KT P6SM SKC
FM161800 12006KT P6SM SKC
FM162000 07008KT P6SM SKC
FM170100 16005KT P6SM SKC
FM170500 21007KT P6SM SKC

KMCI 16/12/2018 UTC

TAF KMCI 161120Z 1612/1712 26005KT P6SM FEW250
FM161700 31007KT P6SM SKC

KDFW 16/12/2018 UTC

TAF KDFW 161455Z 1615/1718 19006KT P6SM BKN200
FM170600 30004KT P6SM SCT250

KAUS 16/12/2018 UTC

TAF KAUS 161121Z 1612/1718 VRB03KT P6SM FEW200
FM161700 18006KT P6SM SCT200
FM170000 VRB03KT P6SM BKN200

KELP 16/12/2018 UTC

TAF KELP 161120Z 1612/1712 04006KT P6SM BKN150 OVC200
FM161900 16005KT P6SM BKN120 OVC200
FM170000 15004KT P6SM SCT080 OVC150
FM170500 VRB03KT P6SM VCSH FEW030 BKN080 OVC150

KIAH 16/12/2018 UTC

TAF KIAH 161120Z 1612/1718 VRB03KT P6SM SCT250
FM161600 VRB05KT P6SM BKN250

KSAT 16/12/2018 UTC

TAF KSAT 161121Z 1612/1718 VRB03KT P6SM FEW250
FM161800 18005KT P6SM SCT250
FM170000 VRB03KT P6SM BKN250

KTUS 16/12/2018 UTC

TAF KTUS 161135Z 1612/1712 13006KT P6SM BKN120
TEMPO 1612/1616 13013G21KT
FM170200 14006KT P6SM SCT070 BKN120

MMCU 16/12/2018 UTC

TAF MMCU 160457Z 1606/1706 16005KT P6SM SCT100 BKN250
FM161700 16010KT P6SM SCT030 BKN250
TEMPO 1622/1702 5SM RA BKN030
FM170200 16005KT P6SM SCT100 BKN250

MMHO 16/12/2018 UTC

TAF MMHO 160438Z 1606/1706 00000KT 6SM HZ BKN100 OVC250
FM161800 25008KT P6SM SCT100 BKN250
FM170200 00000KT P6SM SCT250

MMLT 16/12/2018 UTC

TAF MMLT 160455Z 1606/1706 02005KT 6SM HZ OVC200
FM161800 03010KT P6SM BKN100 OVC200
FM170400 03005KT 6SM HZ BKN100 OVC200

MMSD 16/12/2018 UTC

TAF MMSD 160455Z 1606/1706 30008KT P6SM BKN150 OVC280
FM161800 34015KT P6SM BKN150 OVC280
FM170300 34008KT 6SM HZ BKN150 OVC250

Papua New Guinea, Southwest Pacific

The availability of aerodrome forecasts from overseas locations is dependent on the regular international exchange of data. Some locations may at times be absent. If this problem persists, please advise webav@bom.gov.au

 back to top

NWWW 16/12/2018 UTC

TAF NWWW 161100Z 1612/1712 12004KT 9999 SCT050 BECMG 1622/1624 12014KT

NFFN 16/12/2018 UTC

TAF NFFN 161055Z 1612/1712
14007KT 9999 FEW030 SCT050
BECMG 1622/1624 27010KT
PROB30 TEMPO 1702/1706 3000 TSRA BKN015 FEW017CB
BECMG 1704/1706 12005KT

NFNA 16/12/2018 UTC

TAF NFNA 161117Z 1612/1712
12005KT 9999 BKN020
PROB30 TEMPO 1615/1706 3000 TSRA BKN015 FEW018CB

NFTF 16/12/2018 UTC

TAF NFTF 161106Z 1612/1712
34008KT 9999 -SHRA FEW008 SCT016 OVC090
PROB30 TEMPO 1612/1624 3000 TSRA BKN006 FEW016CB

NSTU 16/12/2018 UTC

TAF NSTU 161302Z 1612/1712 32007KT P6SM VCSH SCT015 SCT040 BKN100
FM170000 04007KT P6SM VCSH SCT015 SCT040 BKN100 AMD NOT SKED

NVVV 16/12/2018 UTC

TAF NVVV 161000Z 1612/1712 10014KT 9999 SCT020
PROB30 INTER 1612/1618 9000 -SHRA BKN018
BECMG 1612/1614 VRB02KT

NCRG 16/12/2018 UTC

TAF NCRG 161103Z 1612/1712
08008KT 9999 SCT015 BKN100
PROB30 TEMPO 1612/1706 3000 TSRA BKN015 FEW017CB

NTAA 16/12/2018 UTC

TAF NTAA 161100Z 1612/1718 VRB02KT 9999 FEW020 SCT050 BECMG 1619/1621
02015KT TEMPO 1701/1704 18008KT BECMG 1704/1706 VRB02KT

NTTG

TAF not available.

NTTO

TAF not available.

NSFA 16/12/2018 UTC

TAF NSFA 161111Z 1612/1712
05008KT 9999 FEW020 SCT050
PROB30 TEMPO 1700/1712 3000 TSRA BKN015 FEW018CB

ANYN

TAF not available.

AGGH 16/12/2018 UTC

TAF AGGH 161110Z 1612/1712 36005KT 9999 -SHRA FEW015 SCT028 BKN100

PROB40 INTER 1615/1621 5000 SHRA BKN014

T 26 25 24 26 Q 1007 1005 1004 1006

AGGM 16/12/2018 UTC

TAF AGGM 161110Z 1612/1712 23005KT 9999 FEW016 BKN100

Q 1007 1005 1004 1006

AGGN 16/12/2018 UTC

TAF AGGN 161110Z 1612/1712 23005KT 9999 FEW016 BKN100

Q 1007 1005 1004 1006

AYPY 16/12/2018 UTC

TAF AYPY 161001Z 1612/1712 28010KT 9999 SCT040
FM161800 28005KT 9999 BKN035

AYNZ

TAF not available.

AYMD

TAF not available.

AYMH

TAF not available.

AYTA

TAF not available.

PKMJ 16/12/2018 UTC

TAF PKMJ 161140Z 1612/1712 09010KT P6SM VCSH FEW015 SCT050 BKN140

NGTA 16/12/2018 UTC

TAF NGTA 161113Z 1612/1712
03008KT 9999 -SHRA SCT017 BKN030
PROB30 TEMPO 1612/1624 3000 TSRA BKN015 FEW016CB
PROB40 TEMPO 1709/1712 3000 TSRA BKN015 SCT016CB

PTRO 16/12/2018 UTC

TAF PTRO 161140Z 1612/1712 06010KT P6SM FEW016 SCT050 SCT140
FM162300 05012G20KT P6SM VCSH FEW018 SCT040 SCT120

YLHI 16/12/2018 UTC

TAF AMD YLHI 161254Z 1613/1712
06014KT 9999 SCT020 SCT025
FM162100 04015G25KT 9999 SCT020
FM170900 04010KT 9999 SCT020
RMK FM161300 MOD TURB BLW 5000FT
T 21 21 21 23 Q 1016 1015 1015 1016

YSNF 16/12/2018 UTC

TAF YSNF 161103Z 1612/1712
10015G25KT 9999 BKN020
FM161800 10018G28KT 9999 SCT020 SCT025
FM170800 09013KT 9999 SCT020 SCT025
RMK FM161400 MOD TURB BLW 5000FT TILL170400
T 20 19 20 22 Q 1020 1018 1018 1019

Indonesia, Timor Leste, Papua New Guinea

The availability of aerodrome forecasts from overseas locations is dependent on the regular international exchange of data. Some locations may at times be absent. If this problem persists, please advise webav@bom.gov.au

 back to top

WAAA 16/12/2018 UTC

TAF WAAA 161100Z 1612/1718 10005KT 8000 SCT018
TEMPO 1615/1619 5000 -TSRA FEW017CB
BECMG 1621/1623 9999
BECMG 1701/1703 28010KT

WAMM 16/12/2018 UTC

TAF WAMM 161100Z 1612/1718 05002KT 9000 SCT018
PROB30 TEMPO 1615/1618 6000 -RA
BECMG 1623/1701 32007KT SCT021

WAMP

TAF not available.

WAJJ 16/12/2018 UTC

TAF WAJJ 161700Z 1618/1718 00000KT 9999 SCT013
PROB30 TEMPO 1618/1622 5000 RA SCT010
BECMG 1622/1624 16007KT
TEMPO 1704/1708 VCSH FEW012CB
BECMG 1709/1711 00000KT

WAPP 16/12/2018 UTC

TAF WAPP 161100Z 1612/1712 35007KT 6000 -RA FEW015CB BKN017
BECMG 1614/1616 9999 NSW

WABB 16/12/2018 UTC

TAF WABB 161100Z 1612/1718 32005KT 9999 SCT018
BECMG 1622/1700 25008KT

WPDL

TAF not available.

WATT 16/12/2018 UTC

TAF WATT 161100Z 1612/1712 26008KT 8000 SCT017
BECMG 1704/1706 30010KT BKN017

WIII 16/12/2018 UTC

TAF WIII 161100Z 1612/1718 25013KT 6000 SCT020 TEMPO 1612/1616
FEW018CB

WIHH 16/12/2018 UTC

TAF WIHH 161100Z 1612/1712 26008KT 6000 SCT020 BECMG 1618/1620 18005KT FEW022

WIMM 16/12/2018 UTC

TAF WIMM 161100Z 1612/1712 VRB04KT 5000 HZ BKN018
BECMG 1702/1704 33009KT 9000 SCT020

WARR 16/12/2018 UTC

TAF WARR 161100Z 1612/1712 15010KT 8000 FEW020
TEMPO 1612/1616 4000 TSRA FEW018CB SCT020
BECMG 1616/1618 28006KT 4000 BR
BECMG 1701/1703 9999 NSW
PROB30 TEMPO 1708/1712 16010KT 3000 TSRA SCT018CB

WADD 16/12/2018 UTC

TAF WADD 161100Z 1612/1712 24010KT 9999 SCT016

AYPY 16/12/2018 UTC

TAF AYPY 161001Z 1612/1712 28010KT 9999 SCT040
FM161800 28005KT 9999 BKN035

AYNZ

TAF not available.

AYMH

TAF not available.

AYMD

TAF not available.

AYHK

TAF not available.

AYTK

TAF not available.

AYVN

TAF not available.

AYWK

TAF not available.

AYGA

TAF not available.

AYDU

TAF not available.

AYMS

TAF not available.

AYRB

TAF not available.

AYTB

TAF not available.

AYKI

TAF not available.

AYKT

TAF not available.

AYBK

TAF not available.

AYKM

TAF not available.

AYKY

TAF not available.

AYMO

TAF not available.

AYKV

TAF not available.

Accessing this Service

By entering this site, you acknowledge that this information is produced solely for use by the aviation industry, and you are aware that any information for the purposes of flight planning should be obtained from Airservices Australia.